createdAt,value
2023-02-09T00:01:17.644Z,62.94
2023-02-09T00:02:43.820Z,63.13
2023-02-09T00:04:07.951Z,63.09
2023-02-09T00:05:30.144Z,63.22
2023-02-09T00:06:56.065Z,63.16
2023-02-09T00:08:18.258Z,62.94
2023-02-09T00:09:40.923Z,62.80
2023-02-09T00:11:07.913Z,62.64
2023-02-09T00:12:50.272Z,63.05
2023-02-09T00:14:11.449Z,62.84
2023-02-09T00:15:39.154Z,63.19
2023-02-09T00:17:02.868Z,62.98
2023-02-09T00:18:26.639Z,63.12
2023-02-09T00:19:50.262Z,63.29
2023-02-09T00:21:12.273Z,63.02
2023-02-09T00:22:34.952Z,63.01
2023-02-09T00:23:58.620Z,63.10
2023-02-09T00:25:21.073Z,63.30
2023-02-09T00:26:42.662Z,63.13
2023-02-09T00:28:05.526Z,63.01
2023-02-09T00:29:27.965Z,63.36
2023-02-09T00:30:52.340Z,63.36
2023-02-09T00:32:13.993Z,63.38
2023-02-09T00:33:42.293Z,63.23
2023-02-09T00:35:07.939Z,63.17
2023-02-09T00:36:31.532Z,63.29
2023-02-09T00:37:53.900Z,63.42
2023-02-09T00:39:15.053Z,63.26
2023-02-09T00:40:39.323Z,63.64
2023-02-09T00:42:08.337Z,63.46
2023-02-09T00:43:31.610Z,63.31
2023-02-09T00:44:54.248Z,63.50
2023-02-09T00:46:16.888Z,63.45
2023-02-09T00:47:39.021Z,63.53
2023-02-09T00:49:05.135Z,63.63
2023-02-09T00:50:32.680Z,63.29
2023-02-09T00:52:29.184Z,63.71
2023-02-09T00:53:51.953Z,63.54
2023-02-09T00:55:21.285Z,63.93
2023-02-09T00:56:42.589Z,63.24
2023-02-09T00:58:05.074Z,63.63
2023-02-09T00:59:37.331Z,63.55
2023-02-09T01:01:01.605Z,63.59
2023-02-09T01:02:33.641Z,63.67
2023-02-09T01:03:55.318Z,63.79
2023-02-09T01:05:19.707Z,64.09
2023-02-09T01:06:42.350Z,63.54
2023-02-09T01:08:04.712Z,63.98
2023-02-09T01:09:27.776Z,64.00
2023-02-09T01:10:50.220Z,63.65
2023-02-09T01:12:13.650Z,63.94
2023-02-09T01:13:35.914Z,64.18
2023-02-09T01:14:58.042Z,64.17
2023-02-09T01:16:21.695Z,64.02
2023-02-09T01:17:43.938Z,64.28
2023-02-09T01:19:06.364Z,63.99
2023-02-09T01:20:30.180Z,64.22
2023-02-09T01:21:55.601Z,64.05
2023-02-09T01:23:20.516Z,64.27
2023-02-09T01:24:43.128Z,64.16
2023-02-09T01:26:11.079Z,63.96
2023-02-09T01:27:34.614Z,64.24
2023-02-09T01:28:59.748Z,64.09
2023-02-09T01:30:23.878Z,64.35
2023-02-09T01:31:47.157Z,64.51
2023-02-09T01:33:09.822Z,64.04
2023-02-09T01:34:30.898Z,63.95
2023-02-09T01:36:15.530Z,64.15
2023-02-09T01:37:37.910Z,64.29
2023-02-09T01:39:02.541Z,64.18
2023-02-09T01:40:24.771Z,64.49
2023-02-09T01:41:54.073Z,64.41
2023-02-09T01:43:16.700Z,64.42
2023-02-09T01:45:07.889Z,64.30
2023-02-09T01:46:34.617Z,64.24
2023-02-09T01:48:00.247Z,64.16
2023-02-09T01:49:26.500Z,64.57
2023-02-09T01:50:50.000Z,64.37
2023-02-09T01:52:22.317Z,64.26
2023-02-09T01:53:45.435Z,64.57
2023-02-09T01:55:11.517Z,64.37
2023-02-09T01:56:33.858Z,64.46
2023-02-09T01:58:00.866Z,64.47
2023-02-09T01:59:23.679Z,64.70
2023-02-09T02:00:46.896Z,64.76
2023-02-09T02:02:12.302Z,64.75
2023-02-09T02:03:34.972Z,64.69
2023-02-09T02:04:58.828Z,64.59
2023-02-09T02:06:21.466Z,64.68
2023-02-09T02:07:48.444Z,64.55
2023-02-09T02:09:14.137Z,64.58
2023-02-09T02:10:36.029Z,64.84
2023-02-09T02:11:58.526Z,64.76
2023-02-09T02:13:24.250Z,64.68
2023-02-09T02:14:46.466Z,64.38
2023-02-09T02:16:24.502Z,64.67
2023-02-09T02:18:01.382Z,64.67
2023-02-09T02:20:08.561Z,64.58
2023-02-09T02:22:03.843Z,64.76
2023-02-09T02:23:37.656Z,64.89
2023-02-09T02:25:19.595Z,64.47
2023-02-09T02:26:59.755Z,64.74
2023-02-09T02:28:41.977Z,64.79
2023-02-09T02:30:36.137Z,64.90
2023-02-09T02:32:20.483Z,64.62
2023-02-09T02:33:47.206Z,64.78
2023-02-09T02:35:17.891Z,64.87
2023-02-09T02:36:53.745Z,64.52
2023-02-09T02:38:20.025Z,64.89
2023-02-09T02:39:52.491Z,64.61
2023-02-09T02:41:16.343Z,65.03
2023-02-09T02:42:50.685Z,64.42
2023-02-09T02:44:17.447Z,64.96
2023-02-09T02:45:45.178Z,64.50
2023-02-09T02:47:12.392Z,64.49
2023-02-09T02:48:39.065Z,64.99
2023-02-09T02:50:06.542Z,64.61
2023-02-09T02:51:33.505Z,64.64
2023-02-09T02:52:58.156Z,64.83
2023-02-09T02:54:26.566Z,64.38
2023-02-09T02:55:51.639Z,64.49
2023-02-09T02:57:18.314Z,64.73
2023-02-09T02:58:42.863Z,64.41
2023-02-09T03:00:12.454Z,64.48
2023-02-09T03:01:40.718Z,64.41
2023-02-09T03:03:11.721Z,64.68
2023-02-09T03:04:37.009Z,64.35
2023-02-09T03:05:59.540Z,64.37
2023-02-09T03:07:22.188Z,64.46
2023-02-09T03:08:48.905Z,64.78
2023-02-09T03:10:27.084Z,64.43
2023-02-09T03:11:53.237Z,64.35
2023-02-09T03:13:37.392Z,64.14
2023-02-09T03:15:15.542Z,63.95
2023-02-09T03:16:46.510Z,64.05
2023-02-09T03:18:21.829Z,64.27
2023-02-09T03:19:52.793Z,63.98
2023-02-09T03:21:17.466Z,63.96
2023-02-09T03:22:43.234Z,64.00
2023-02-09T03:24:08.129Z,63.80
2023-02-09T03:25:35.926Z,63.83
2023-02-09T03:27:02.479Z,63.94
2023-02-09T03:28:30.465Z,63.97
2023-02-09T03:29:56.457Z,63.99
2023-02-09T03:31:18.793Z,63.87
2023-02-09T03:32:43.671Z,63.60
2023-02-09T03:34:07.037Z,63.67
2023-02-09T03:35:37.670Z,63.52
2023-02-09T03:37:00.233Z,63.92
2023-02-09T03:38:23.110Z,64.05
2023-02-09T03:39:45.566Z,64.12
2023-02-09T03:41:09.479Z,63.76
2023-02-09T03:42:31.712Z,63.96
2023-02-09T03:44:11.337Z,63.58
2023-02-09T03:45:33.901Z,63.74
2023-02-09T03:46:56.790Z,63.71
2023-02-09T03:48:19.184Z,64.12
2023-02-09T03:49:42.985Z,63.94
2023-02-09T03:51:06.869Z,63.74
2023-02-09T03:52:31.105Z,64.00
2023-02-09T03:53:52.165Z,63.99
2023-02-09T03:55:17.047Z,63.67
2023-02-09T03:56:39.630Z,63.88
2023-02-09T03:58:01.903Z,64.05
2023-02-09T03:59:25.360Z,63.75
2023-02-09T04:00:47.853Z,63.71
2023-02-09T04:02:11.522Z,63.89
2023-02-09T04:03:33.170Z,63.80
2023-02-09T04:04:57.165Z,63.92
2023-02-09T04:06:18.491Z,63.83
2023-02-09T04:07:43.789Z,63.70
2023-02-09T04:09:06.866Z,63.82
2023-02-09T04:10:31.609Z,64.02
2023-02-09T04:11:53.744Z,64.22
2023-02-09T04:13:15.695Z,64.18
2023-02-09T04:14:41.105Z,63.88
2023-02-09T04:16:02.693Z,63.88
2023-02-09T04:17:25.121Z,64.07
2023-02-09T04:18:46.775Z,64.00
2023-02-09T04:20:11.265Z,64.34
2023-02-09T04:21:32.765Z,64.37
2023-02-09T04:22:54.885Z,63.85
2023-02-09T04:24:17.354Z,63.84
2023-02-09T04:25:38.544Z,63.99
2023-02-09T04:27:01.075Z,63.98
2023-02-09T04:28:23.440Z,64.05
2023-02-09T04:29:46.068Z,63.96
2023-02-09T04:31:08.669Z,64.11
2023-02-09T04:32:41.503Z,63.92
2023-02-09T04:34:04.164Z,63.94
2023-02-09T04:35:27.136Z,64.18
2023-02-09T04:36:49.246Z,64.20
2023-02-09T04:38:10.636Z,64.17
2023-02-09T04:39:35.933Z,64.07
2023-02-09T04:41:01.275Z,64.14
2023-02-09T04:42:23.112Z,63.95
2023-02-09T04:43:46.959Z,64.08
2023-02-09T04:45:09.356Z,64.00
2023-02-09T04:46:31.823Z,64.14
2023-02-09T04:47:54.030Z,64.18
2023-02-09T04:49:16.134Z,64.02
2023-02-09T04:50:38.152Z,64.06
2023-02-09T04:52:00.765Z,63.83
2023-02-09T04:53:23.995Z,63.94
2023-02-09T04:54:46.285Z,64.13
2023-02-09T04:56:09.301Z,63.65
2023-02-09T04:57:48.679Z,64.05
2023-02-09T04:59:34.051Z,63.69
2023-02-09T05:00:56.971Z,63.75
2023-02-09T05:02:19.272Z,63.90
2023-02-09T05:03:43.768Z,64.22
2023-02-09T05:05:06.333Z,64.12
2023-02-09T05:06:30.631Z,63.90
2023-02-09T05:07:51.913Z,64.07
2023-02-09T05:09:14.450Z,63.95
2023-02-09T05:10:35.957Z,64.07
2023-02-09T05:11:58.155Z,64.14
2023-02-09T05:13:21.573Z,64.07
2023-02-09T05:14:44.016Z,63.88
2023-02-09T05:16:10.258Z,63.85
2023-02-09T05:17:35.067Z,63.68
2023-02-09T05:18:57.477Z,63.71
2023-02-09T05:20:22.014Z,63.63
2023-02-09T05:21:45.720Z,63.94
2023-02-09T05:23:07.062Z,64.03
2023-02-09T05:24:29.230Z,63.98
2023-02-09T05:25:51.661Z,63.87
2023-02-09T05:27:13.968Z,63.68
2023-02-09T05:28:36.323Z,63.67
2023-02-09T05:29:58.523Z,63.54
2023-02-09T05:31:20.856Z,63.60
2023-02-09T05:32:43.039Z,63.48
2023-02-09T05:34:05.140Z,63.88
2023-02-09T05:35:26.650Z,63.89
2023-02-09T05:36:50.641Z,63.71
2023-02-09T05:38:15.586Z,63.52
2023-02-09T05:39:37.808Z,63.55
2023-02-09T05:40:59.883Z,63.51
2023-02-09T05:42:21.233Z,63.89
2023-02-09T05:43:43.691Z,63.45
2023-02-09T05:45:06.500Z,63.75
2023-02-09T05:46:28.814Z,63.65
2023-02-09T05:47:54.931Z,63.56
2023-02-09T05:49:17.515Z,63.80
2023-02-09T05:50:41.905Z,63.84
2023-02-09T05:52:06.539Z,63.79
2023-02-09T05:53:28.783Z,63.60
2023-02-09T05:54:50.343Z,63.70
2023-02-09T05:56:13.497Z,63.81
2023-02-09T05:57:36.102Z,63.89
2023-02-09T05:58:58.363Z,63.70
2023-02-09T06:00:21.183Z,63.53
2023-02-09T06:01:42.623Z,63.49
2023-02-09T06:03:04.948Z,63.78
2023-02-09T06:04:27.664Z,63.56
2023-02-09T06:05:49.955Z,63.28
2023-02-09T06:07:13.649Z,63.33
2023-02-09T06:08:36.106Z,63.43
2023-02-09T06:09:57.399Z,63.49
2023-02-09T06:11:20.656Z,63.15
2023-02-09T06:12:43.203Z,63.46
2023-02-09T06:14:07.156Z,63.38
2023-02-09T06:15:29.517Z,63.14
2023-02-09T06:16:52.238Z,62.97
2023-02-09T06:18:15.344Z,63.19
2023-02-09T06:19:37.376Z,63.27
2023-02-09T06:20:59.731Z,63.03
2023-02-09T06:22:23.574Z,62.81
2023-02-09T06:23:44.924Z,63.21
2023-02-09T06:25:15.508Z,63.21
2023-02-09T06:26:38.296Z,63.04
2023-02-09T06:28:00.929Z,62.81
2023-02-09T06:29:25.867Z,62.96
2023-02-09T06:30:51.818Z,63.00
2023-02-09T06:32:16.683Z,63.01
2023-02-09T06:33:39.314Z,62.71
2023-02-09T06:35:01.337Z,62.69
2023-02-09T06:36:23.846Z,62.52
2023-02-09T06:37:47.398Z,62.60
2023-02-09T06:39:10.900Z,62.58
2023-02-09T06:40:33.212Z,62.61
2023-02-09T06:41:57.395Z,62.36
2023-02-09T06:43:18.750Z,62.09
2023-02-09T06:44:40.975Z,62.31
2023-02-09T06:46:11.969Z,62.11
2023-02-09T06:47:33.484Z,62.07
2023-02-09T06:48:57.198Z,61.93
2023-02-09T06:50:21.420Z,62.09
2023-02-09T06:51:43.924Z,62.12
2023-02-09T06:53:08.036Z,61.98
2023-02-09T06:54:30.700Z,61.64
2023-02-09T06:55:52.970Z,61.94
2023-02-09T06:57:15.475Z,61.56
2023-02-09T06:58:39.650Z,61.41
2023-02-09T07:00:02.495Z,61.54
2023-02-09T07:01:25.126Z,61.81
2023-02-09T07:02:47.609Z,61.53
2023-02-09T07:04:10.134Z,61.32
2023-02-09T07:05:34.323Z,61.46
2023-02-09T07:06:57.075Z,61.45
2023-02-09T07:08:21.025Z,61.47
2023-02-09T07:09:43.322Z,61.44
2023-02-09T07:11:07.073Z,61.26
2023-02-09T07:12:31.936Z,61.21
2023-02-09T07:13:54.675Z,61.16
2023-02-09T07:15:16.704Z,61.10
2023-02-09T07:16:39.262Z,60.98
2023-02-09T07:18:01.564Z,60.60
2023-02-09T07:19:24.461Z,60.96
2023-02-09T07:20:47.112Z,60.64
2023-02-09T07:22:09.754Z,60.26
2023-02-09T07:23:36.104Z,60.54
2023-02-09T07:25:09.357Z,60.67
2023-02-09T07:26:32.287Z,60.51
2023-02-09T07:27:54.999Z,60.00
2023-02-09T07:29:21.017Z,60.00
2023-02-09T07:30:43.752Z,60.09
2023-02-09T07:32:07.372Z,59.99
2023-02-09T07:33:31.943Z,59.79
2023-02-09T07:34:54.690Z,60.01
2023-02-09T07:36:21.239Z,59.55
2023-02-09T07:37:45.384Z,59.70
2023-02-09T07:39:09.445Z,59.57
2023-02-09T07:40:35.268Z,59.18
2023-02-09T07:42:06.533Z,58.94
2023-02-09T07:43:47.960Z,59.42
2023-02-09T07:45:13.149Z,58.78
2023-02-09T07:46:38.109Z,58.88
2023-02-09T07:48:06.030Z,58.73
2023-02-09T07:49:33.532Z,58.88
2023-02-09T07:51:15.589Z,58.68
2023-02-09T07:52:37.623Z,58.35
2023-02-09T07:54:00.571Z,58.00
2023-02-09T07:55:26.929Z,58.34
2023-02-09T07:56:51.146Z,58.27
2023-02-09T07:58:14.946Z,58.11
2023-02-09T07:59:43.200Z,58.09
2023-02-09T08:01:15.078Z,57.74
2023-02-09T08:02:41.636Z,57.56
2023-02-09T08:04:04.451Z,57.49
2023-02-09T08:05:31.998Z,57.27
2023-02-09T08:06:58.697Z,57.29
2023-02-09T08:08:26.945Z,57.26
2023-02-09T08:09:51.610Z,57.12
2023-02-09T08:11:24.794Z,56.65
2023-02-09T08:13:02.284Z,56.71
2023-02-09T08:14:30.243Z,56.44
2023-02-09T08:15:57.546Z,56.43
2023-02-09T08:17:28.406Z,56.33
2023-02-09T08:19:02.458Z,55.98
2023-02-09T08:20:28.870Z,56.16
2023-02-09T08:21:52.202Z,56.00
2023-02-09T08:23:23.925Z,55.87
2023-02-09T08:24:46.360Z,55.47
2023-02-09T08:26:11.433Z,55.21
2023-02-09T08:27:39.408Z,54.86
2023-02-09T08:29:02.128Z,54.83
2023-02-09T08:30:30.642Z,54.51
2023-02-09T08:32:05.837Z,54.34
2023-02-09T08:33:32.815Z,54.10
2023-02-09T08:34:56.390Z,53.77
2023-02-09T08:36:20.480Z,53.17
2023-02-09T08:37:48.059Z,52.83
2023-02-09T08:39:11.106Z,52.67
2023-02-09T08:40:38.506Z,52.20
2023-02-09T08:42:04.330Z,51.78
2023-02-09T08:43:29.774Z,51.57
2023-02-09T08:44:52.702Z,51.17
2023-02-09T08:46:15.389Z,50.98
2023-02-09T08:47:42.602Z,50.63
2023-02-09T08:49:05.234Z,50.40
2023-02-09T08:50:27.446Z,50.15
2023-02-09T08:51:51.949Z,50.31
2023-02-09T08:53:19.735Z,49.83
2023-02-09T08:54:43.043Z,49.33
2023-02-09T08:56:11.954Z,49.11
2023-02-09T08:57:43.415Z,48.73
2023-02-09T08:59:08.802Z,48.33
2023-02-09T09:00:36.686Z,48.18
2023-02-09T09:01:59.736Z,47.93
2023-02-09T09:03:22.069Z,47.68
2023-02-09T09:04:51.618Z,47.34
2023-02-09T09:06:15.568Z,47.19
2023-02-09T09:07:43.339Z,47.30
2023-02-09T09:09:24.740Z,46.78
2023-02-09T09:10:50.644Z,46.52
2023-02-09T09:12:15.100Z,46.30
2023-02-09T09:13:37.693Z,46.17
2023-02-09T09:15:02.151Z,45.85
2023-02-09T09:16:30.667Z,45.75
2023-02-09T09:17:55.335Z,45.87
2023-02-09T09:19:18.152Z,45.38
2023-02-09T09:20:43.928Z,45.26
2023-02-09T09:22:09.634Z,45.16
2023-02-09T09:23:37.180Z,44.96
2023-02-09T09:24:59.364Z,45.32
2023-02-09T09:26:21.801Z,44.81
2023-02-09T09:27:44.976Z,44.90
2023-02-09T09:29:07.590Z,44.41
2023-02-09T09:30:32.266Z,44.17
2023-02-09T09:31:57.269Z,44.00
2023-02-09T09:33:22.104Z,43.84
2023-02-09T09:34:47.194Z,43.75
2023-02-09T09:36:12.620Z,43.50
2023-02-09T09:37:34.972Z,43.34
2023-02-09T09:41:32.906Z,43.13
2023-02-09T09:43:23.331Z,42.77
2023-02-09T09:44:48.076Z,42.94
2023-02-09T09:46:18.874Z,42.30
2023-02-09T09:47:49.277Z,42.33
2023-02-09T09:49:24.223Z,41.96
2023-02-09T09:50:47.662Z,42.05
2023-02-09T09:52:20.070Z,41.85
2023-02-09T09:53:47.793Z,42.31
2023-02-09T09:55:16.686Z,42.26
2023-02-09T09:56:41.822Z,41.88
2023-02-09T09:58:07.313Z,42.00
2023-02-09T09:59:38.949Z,41.61
2023-02-09T10:01:04.476Z,41.62
2023-02-09T10:02:33.190Z,41.61
2023-02-09T10:04:02.165Z,41.32
2023-02-09T10:05:29.140Z,41.25
2023-02-09T10:07:00.358Z,41.13
2023-02-09T10:08:41.583Z,41.04
2023-02-09T10:10:19.121Z,40.85
2023-02-09T10:11:51.539Z,40.66
2023-02-09T10:13:24.786Z,40.74
2023-02-09T10:14:57.775Z,40.65
2023-02-09T10:16:25.107Z,40.82
2023-02-09T10:18:01.156Z,40.63
2023-02-09T10:19:35.967Z,40.52
2023-02-09T10:21:04.024Z,40.43
2023-02-09T10:22:31.696Z,40.43
2023-02-09T10:24:21.412Z,40.21
2023-02-09T10:26:06.401Z,40.27
2023-02-09T10:27:32.641Z,40.25
2023-02-09T10:28:57.482Z,40.15
2023-02-09T10:30:33.332Z,40.00
2023-02-09T10:32:07.697Z,40.06
2023-02-09T10:33:44.470Z,40.06
2023-02-09T10:35:29.391Z,39.94
2023-02-09T10:36:53.268Z,40.10
2023-02-09T10:38:19.248Z,39.99
2023-02-09T10:39:43.647Z,39.97
2023-02-09T10:41:11.672Z,39.82
2023-02-09T10:42:36.041Z,39.93
2023-02-09T10:44:04.959Z,39.98
2023-02-09T10:45:30.830Z,39.78
2023-02-09T10:47:11.239Z,39.68
2023-02-09T10:48:44.611Z,39.76
2023-02-09T10:50:19.354Z,39.82
2023-02-09T10:51:44.093Z,39.83
2023-02-09T10:53:21.318Z,39.94
2023-02-09T10:54:44.893Z,39.88
2023-02-09T10:56:12.018Z,39.88
2023-02-09T10:57:38.506Z,39.86
2023-02-09T10:59:04.897Z,39.78
2023-02-09T11:00:34.251Z,39.83
2023-02-09T11:01:59.213Z,39.95
2023-02-09T11:03:25.483Z,40.18
2023-02-09T11:04:49.619Z,40.12
2023-02-09T11:06:17.853Z,39.96
2023-02-09T11:07:43.649Z,39.83
2023-02-09T11:09:18.279Z,39.81
2023-02-09T11:10:50.478Z,39.97
2023-02-09T11:12:14.240Z,40.08
2023-02-09T11:13:37.141Z,39.88
2023-02-09T11:15:02.957Z,39.65
2023-02-09T11:16:49.034Z,39.77
2023-02-09T11:18:19.520Z,39.97
2023-02-09T11:20:00.588Z,39.90
2023-02-09T11:21:35.284Z,40.12
2023-02-09T11:23:31.990Z,40.16
2023-02-09T11:25:03.707Z,40.49
2023-02-09T11:26:39.542Z,40.54
2023-02-09T11:28:28.492Z,40.49
2023-02-09T11:29:59.315Z,40.61
2023-02-09T11:31:44.545Z,40.27
2023-02-09T11:33:12.507Z,40.60
2023-02-09T11:35:03.673Z,40.51
2023-02-09T11:36:47.717Z,40.54
2023-02-09T11:38:16.357Z,40.74
2023-02-09T11:39:45.909Z,40.70
2023-02-09T11:41:27.405Z,40.74
2023-02-09T11:42:58.538Z,40.48
2023-02-09T11:44:28.594Z,40.79
2023-02-09T11:45:52.058Z,40.65
2023-02-09T11:47:19.632Z,40.62
2023-02-09T11:48:48.750Z,40.67
2023-02-09T11:50:21.350Z,40.51
2023-02-09T11:51:47.802Z,40.46
2023-02-09T11:53:21.699Z,40.46
2023-02-09T11:54:52.340Z,40.51
2023-02-09T11:56:16.655Z,40.45
2023-02-09T11:57:46.572Z,40.39
2023-02-09T11:59:17.795Z,40.38
2023-02-09T12:00:56.287Z,40.27
2023-02-09T12:02:33.007Z,40.42
2023-02-09T12:04:05.160Z,40.44
2023-02-09T12:05:29.782Z,40.58
2023-02-09T12:06:55.790Z,40.58
2023-02-09T12:08:50.334Z,40.38
2023-02-09T12:10:21.450Z,40.40
2023-02-09T12:11:57.376Z,40.56
2023-02-09T12:13:35.069Z,40.62
2023-02-09T12:15:04.610Z,40.65
2023-02-09T12:16:30.560Z,40.77
2023-02-09T12:18:00.614Z,40.56
2023-02-09T12:19:31.678Z,40.41
2023-02-09T12:20:58.394Z,40.36
2023-02-09T12:22:49.661Z,40.40
2023-02-09T12:24:34.171Z,40.28
2023-02-09T12:26:00.172Z,40.21
2023-02-09T12:27:28.129Z,40.35
2023-02-09T12:29:03.799Z,40.28
2023-02-09T12:31:01.425Z,40.44
2023-02-09T12:32:44.071Z,40.32
2023-02-09T12:34:16.321Z,40.26
2023-02-09T12:35:39.773Z,40.66
2023-02-09T12:37:27.243Z,40.83
2023-02-09T12:39:06.581Z,40.59
2023-02-09T12:40:37.767Z,40.70
2023-02-09T12:42:42.480Z,40.82
2023-02-09T12:44:39.513Z,40.75
2023-02-09T12:46:17.962Z,40.81
2023-02-09T12:47:46.228Z,40.75
2023-02-09T12:49:21.015Z,40.75
2023-02-09T12:50:55.299Z,40.82
2023-02-09T12:52:20.003Z,40.84
2023-02-09T12:53:47.468Z,40.54
2023-02-09T12:55:35.630Z,40.67
2023-02-09T12:56:58.470Z,40.68
2023-02-09T12:58:40.636Z,40.84
2023-02-09T13:00:43.830Z,40.79
2023-02-09T13:02:18.191Z,40.77
2023-02-09T13:03:46.287Z,40.60
2023-02-09T13:05:13.093Z,40.81
2023-02-09T13:06:42.252Z,41.02
2023-02-09T13:08:16.698Z,41.05
2023-02-09T13:09:46.570Z,41.06
2023-02-09T13:11:24.664Z,41.11
2023-02-09T13:12:53.325Z,41.23
2023-02-09T13:14:18.079Z,41.32
2023-02-09T13:15:53.446Z,41.19
2023-02-09T13:17:38.252Z,41.28
2023-02-09T13:19:14.278Z,41.35
2023-02-09T13:21:09.082Z,41.53
2023-02-09T13:22:47.032Z,41.43
2023-02-09T13:24:16.497Z,41.46
2023-02-09T13:25:44.538Z,41.53
2023-02-09T13:27:19.450Z,41.57
2023-02-09T13:28:41.926Z,41.54
2023-02-09T13:30:06.196Z,41.54
2023-02-09T13:31:37.025Z,41.60
2023-02-09T13:33:09.527Z,41.56
2023-02-09T13:34:42.307Z,41.60
2023-02-09T13:36:24.695Z,41.70
2023-02-09T13:37:49.437Z,41.66
2023-02-09T13:39:23.165Z,41.49
2023-02-09T13:40:50.432Z,41.61
2023-02-09T13:42:21.855Z,41.65
2023-02-09T13:43:48.370Z,41.85
2023-02-09T13:45:19.559Z,41.66
2023-02-09T13:46:41.730Z,41.93
2023-02-09T13:48:15.228Z,41.87
2023-02-09T13:49:37.552Z,41.96
2023-02-09T13:51:02.732Z,42.08
2023-02-09T13:52:26.937Z,41.83
2023-02-09T13:53:58.271Z,41.92
2023-02-09T13:55:27.153Z,42.16
2023-02-09T13:56:52.861Z,42.27
2023-02-09T13:58:24.670Z,42.32
2023-02-09T13:59:50.228Z,42.33
2023-02-09T14:01:18.197Z,42.46
2023-02-09T14:02:48.380Z,42.69
2023-02-09T14:04:17.058Z,42.55
2023-02-09T14:05:43.885Z,42.67
2023-02-09T14:07:14.855Z,42.83
2023-02-09T14:08:41.349Z,42.79
2023-02-09T14:10:20.190Z,42.91
2023-02-09T14:11:49.989Z,43.09
2023-02-09T14:13:19.721Z,42.98
2023-02-09T14:15:03.040Z,43.09
2023-02-09T14:16:28.236Z,43.09
2023-02-09T14:17:53.996Z,43.24
2023-02-09T14:19:27.630Z,43.10
2023-02-09T14:21:10.689Z,43.07
2023-02-09T14:22:35.932Z,43.31
2023-02-09T14:24:17.733Z,43.36
2023-02-09T14:25:40.464Z,43.37
2023-02-09T14:27:18.303Z,43.59
2023-02-09T14:28:40.896Z,43.72
2023-02-09T14:30:03.428Z,43.66
2023-02-09T14:31:28.055Z,43.75
2023-02-09T14:32:55.759Z,43.65
2023-02-09T14:34:25.626Z,43.82
2023-02-09T14:35:56.122Z,44.01
2023-02-09T14:37:31.954Z,44.11
2023-02-09T14:39:05.754Z,43.86
2023-02-09T14:40:34.414Z,43.95
2023-02-09T14:42:18.627Z,44.17
2023-02-09T14:43:41.186Z,44.10
2023-02-09T14:45:30.828Z,44.21
2023-02-09T14:46:54.788Z,44.43
2023-02-09T14:48:26.795Z,44.23
2023-02-09T14:49:49.272Z,44.34
2023-02-09T14:51:18.613Z,44.50
2023-02-09T14:52:46.758Z,44.33
2023-02-09T14:54:25.947Z,44.84
2023-02-09T14:55:49.239Z,44.43
2023-02-09T14:57:14.529Z,44.59
2023-02-09T14:58:41.325Z,44.77
2023-02-09T15:00:15.005Z,44.69
2023-02-09T15:01:37.770Z,44.76
2023-02-09T15:03:00.444Z,44.85
2023-02-09T15:04:23.317Z,44.88
2023-02-09T15:05:46.863Z,45.03
2023-02-09T15:07:17.498Z,45.11
2023-02-09T15:08:44.156Z,45.15
2023-02-09T15:10:17.128Z,44.79
2023-02-09T15:11:56.464Z,45.44
2023-02-09T15:13:21.244Z,45.48
2023-02-09T15:14:45.597Z,45.47
2023-02-09T15:16:09.965Z,45.59
2023-02-09T15:17:33.015Z,45.86
2023-02-09T15:18:55.601Z,45.84
2023-02-09T15:20:21.492Z,45.77
2023-02-09T15:21:44.157Z,45.85
2023-02-09T15:23:09.866Z,45.91
2023-02-09T15:24:32.177Z,46.08
2023-02-09T15:25:54.878Z,46.32
2023-02-09T15:27:25.191Z,46.06
2023-02-09T15:28:49.427Z,46.21
2023-02-09T15:30:15.674Z,46.47
2023-02-09T15:31:41.100Z,46.44
2023-02-09T15:33:03.631Z,46.62
2023-02-09T15:34:26.150Z,46.64
2023-02-09T15:35:49.362Z,46.67
2023-02-09T15:37:22.308Z,46.66
2023-02-09T15:38:44.553Z,46.75
2023-02-09T15:40:44.007Z,47.07
2023-02-09T15:42:32.731Z,47.04
2023-02-09T15:44:14.128Z,47.04
2023-02-09T15:46:05.975Z,47.37
2023-02-09T15:47:46.370Z,47.38
2023-02-09T15:49:08.720Z,47.48
2023-02-09T15:50:33.027Z,47.47
2023-02-09T15:51:55.474Z,47.75
2023-02-09T15:53:21.415Z,47.83
2023-02-09T15:54:44.603Z,47.86
2023-02-09T15:56:10.973Z,47.55
2023-02-09T15:57:32.526Z,47.81
2023-02-09T15:59:00.193Z,47.82
2023-02-09T16:00:35.104Z,48.02
2023-02-09T16:02:07.000Z,48.02
2023-02-09T16:03:31.996Z,48.33
2023-02-09T16:04:58.033Z,48.42
2023-02-09T16:06:25.996Z,48.26
2023-02-09T16:07:50.695Z,48.50
2023-02-09T16:09:18.976Z,48.59
2023-02-09T16:10:41.583Z,48.55
2023-02-09T16:12:05.231Z,48.69
2023-02-09T16:13:30.854Z,48.83
2023-02-09T16:14:54.545Z,48.89
2023-02-09T16:16:17.942Z,48.93
2023-02-09T16:17:41.766Z,48.68
2023-02-09T16:19:05.358Z,48.82
2023-02-09T16:20:31.108Z,48.82
2023-02-09T16:22:00.455Z,49.24
2023-02-09T16:23:47.969Z,49.02
2023-02-09T16:25:21.802Z,49.30
2023-02-09T16:26:44.245Z,49.10
2023-02-09T16:28:06.665Z,49.13
2023-02-09T16:29:29.168Z,49.32
2023-02-09T16:30:55.391Z,49.51
2023-02-09T16:32:22.975Z,49.29
2023-02-09T16:33:46.644Z,49.51
2023-02-09T16:35:16.798Z,49.47
2023-02-09T16:36:42.715Z,49.50
2023-02-09T16:38:16.649Z,49.52
2023-02-09T16:39:41.811Z,49.79
2023-02-09T16:41:04.479Z,50.05
2023-02-09T16:42:26.298Z,49.76
2023-02-09T16:43:52.065Z,49.84
2023-02-09T16:45:16.603Z,50.13
2023-02-09T16:46:44.831Z,50.25
2023-02-09T16:48:20.245Z,50.33
2023-02-09T16:49:44.360Z,50.21
2023-02-09T16:51:07.600Z,50.09
2023-02-09T16:52:32.863Z,50.43
2023-02-09T16:53:55.712Z,50.30
2023-02-09T16:55:25.403Z,50.66
2023-02-09T16:56:54.125Z,50.80
2023-02-09T16:58:21.627Z,50.94
2023-02-09T16:59:46.830Z,50.81
2023-02-09T17:01:17.059Z,50.92
2023-02-09T17:02:44.356Z,50.87
2023-02-09T17:04:09.661Z,51.10
2023-02-09T17:05:35.103Z,51.04
2023-02-09T17:06:57.806Z,51.24
2023-02-09T17:08:21.929Z,50.98
2023-02-09T17:10:35.734Z,51.16
2023-02-09T17:12:00.978Z,51.14
2023-02-09T17:13:25.913Z,51.39
2023-02-09T17:14:51.618Z,51.45
2023-02-09T17:16:22.906Z,51.25
2023-02-09T17:17:50.627Z,51.30
2023-02-09T17:19:18.248Z,51.31
2023-02-09T17:20:52.988Z,51.20
2023-02-09T17:22:15.646Z,51.70
2023-02-09T17:23:38.890Z,51.63
2023-02-09T17:25:01.702Z,51.33
2023-02-09T17:26:24.176Z,51.40
2023-02-09T17:27:50.091Z,51.47
2023-02-09T17:29:13.234Z,51.28
2023-02-09T17:30:45.263Z,51.49
2023-02-09T17:32:31.246Z,51.52
2023-02-09T17:34:04.982Z,51.50
2023-02-09T17:37:31.373Z,51.53
2023-02-09T17:38:56.255Z,51.57
2023-02-09T17:40:22.901Z,51.39
2023-02-09T17:41:50.072Z,51.67
2023-02-09T17:43:12.710Z,51.66
2023-02-09T17:48:18.389Z,51.63
2023-02-09T17:50:12.759Z,51.63
2023-02-09T17:52:48.878Z,51.80
2023-02-09T17:54:38.385Z,51.64
2023-02-09T17:56:19.545Z,51.76
2023-02-09T17:58:00.201Z,51.92
2023-02-09T18:04:20.958Z,51.79
2023-02-09T18:11:47.002Z,51.83
2023-02-09T18:12:02.336Z,51.91
2023-02-09T18:13:29.165Z,51.88
2023-02-09T18:14:51.704Z,51.90
2023-02-09T18:16:17.934Z,52.12
2023-02-09T18:17:46.600Z,52.06
2023-02-09T18:22:27.019Z,52.27
2023-02-09T18:23:51.467Z,52.41
2023-02-09T18:25:36.474Z,52.33
2023-02-09T18:30:24.670Z,52.12
2023-02-09T18:31:52.654Z,52.27
2023-02-09T18:33:44.926Z,52.67
2023-02-09T18:35:46.438Z,52.45
2023-02-09T18:37:09.255Z,52.37
2023-02-09T18:38:37.645Z,52.50
2023-02-09T18:40:25.158Z,52.49
2023-02-09T18:44:41.278Z,52.73
2023-02-09T18:46:04.896Z,52.75
2023-02-09T18:48:33.669Z,52.61
2023-02-09T18:49:48.112Z,52.65
2023-02-09T18:51:24.693Z,52.64
2023-02-09T18:55:22.317Z,52.67
2023-02-09T19:03:01.401Z,52.80
2023-02-09T19:04:30.644Z,52.72
2023-02-09T19:06:45.214Z,52.86
2023-02-09T19:11:28.457Z,52.88
2023-02-09T19:12:59.673Z,53.33
2023-02-09T19:20:05.892Z,53.30
2023-02-09T19:21:52.310Z,53.43
2023-02-09T19:30:06.515Z,53.72
2023-02-09T19:31:37.560Z,54.10
2023-02-09T19:32:53.785Z,53.79
2023-02-09T19:38:30.581Z,54.04
2023-02-09T19:42:43.729Z,54.10
2023-02-09T19:44:34.170Z,54.34
2023-02-09T19:46:41.616Z,54.28
2023-02-09T19:49:13.420Z,54.55
2023-02-09T19:53:00.685Z,54.17
2023-02-09T19:54:59.001Z,54.57
2023-02-09T19:56:26.655Z,54.60
2023-02-09T19:57:56.453Z,54.73
2023-02-09T19:59:19.291Z,54.71
2023-02-09T20:00:44.841Z,54.84